ENQE weather

Oseberg South Platform
Norway

Public forecast

Using degrees Celsius for public forecast. Weather courtesy of forecast.io.

Closest aviation weather report (METAR) to Oseberg South Platform

Closest report is Oseberg A Platform, 6.2 nm (11.4 km) N. Retrieved 2019/11/15 09:20 UTC (0 seconds ago):

ENOA 150920Z 08010KT 9999 FEW020 07/04 Q1020 W///S4

Closest aviation forecast (TAF) to Oseberg South Platform

Closest forecast is Oseberg A Platform, 6.2 nm (11.4 km) N. Retrieved 2019/11/15 09:57 UTC (0 seconds ago):

TAF TAF ENOA 150800Z 1509/1609 03012KT 9999 -SHRA SCT015 BKN050